sensor_id;sensor_type;location;lat;lon;timestamp;temperature;humidity
796;DHT22;381;48.770;9.188;2023-04-25T00:03:20;11.60;99.90
796;DHT22;381;48.770;9.188;2023-04-25T00:08:23;11.60;99.40
796;DHT22;381;48.770;9.188;2023-04-25T00:13:27;11.70;99.00
796;DHT22;381;48.770;9.188;2023-04-25T00:18:29;11.70;98.70
796;DHT22;381;48.770;9.188;2023-04-25T00:23:33;11.60;99.90
796;DHT22;381;48.770;9.188;2023-04-25T00:28:39;11.60;99.70
796;DHT22;381;48.770;9.188;2023-04-25T00:33:41;11.70;99.90
796;DHT22;381;48.770;9.188;2023-04-25T00:38:43;11.70;99.50
796;DHT22;381;48.770;9.188;2023-04-25T00:43:48;11.70;99.90
796;DHT22;381;48.770;9.188;2023-04-25T00:48:50;11.70;98.50
796;DHT22;381;48.770;9.188;2023-04-25T00:53:53;11.60;98.40
796;DHT22;381;48.770;9.188;2023-04-25T00:58:56;11.50;99.10
796;DHT22;381;48.770;9.188;2023-04-25T01:03:59;11.50;98.40
796;DHT22;381;48.770;9.188;2023-04-25T01:09:04;11.40;98.60
796;DHT22;381;48.770;9.188;2023-04-25T01:14:07;11.40;99.50
796;DHT22;381;48.770;9.188;2023-04-25T01:19:10;11.40;99.90
796;DHT22;381;48.770;9.188;2023-04-25T01:24:14;11.40;98.50
796;DHT22;381;48.770;9.188;2023-04-25T01:29:16;11.50;99.10
796;DHT22;381;48.770;9.188;2023-04-25T01:34:20;11.50;99.90
796;DHT22;381;48.770;9.188;2023-04-25T01:39:24;11.60;99.80
796;DHT22;381;48.770;9.188;2023-04-25T01:44:26;11.60;99.70
796;DHT22;381;48.770;9.188;2023-04-25T01:49:28;11.60;99.90
796;DHT22;381;48.770;9.188;2023-04-25T01:54:32;11.60;99.40
796;DHT22;381;48.770;9.188;2023-04-25T01:59:35;11.50;99.40
796;DHT22;381;48.770;9.188;2023-04-25T02:05:13;11.50;99.50
796;DHT22;381;48.770;9.188;2023-04-25T02:10:18;11.40;99.60
796;DHT22;381;48.770;9.188;2023-04-25T02:15:40;11.40;99.70
796;DHT22;381;48.770;9.188;2023-04-25T02:20:50;11.30;99.70
796;DHT22;381;48.770;9.188;2023-04-25T02:25:53;11.40;98.80
796;DHT22;381;48.770;9.188;2023-04-25T02:30:56;11.30;99.60
796;DHT22;381;48.770;9.188;2023-04-25T02:35:59;11.30;99.90
796;DHT22;381;48.770;9.188;2023-04-25T02:41:02;11.30;99.90
796;DHT22;381;48.770;9.188;2023-04-25T02:46:04;11.30;99.90
796;DHT22;381;48.770;9.188;2023-04-25T02:51:07;11.30;99.20
796;DHT22;381;48.770;9.188;2023-04-25T02:56:10;11.40;99.60
796;DHT22;381;48.770;9.188;2023-04-25T03:01:12;11.40;98.40
796;DHT22;381;48.770;9.188;2023-04-25T03:06:14;11.30;99.60
796;DHT22;381;48.770;9.188;2023-04-25T03:11:18;11.20;99.80
796;DHT22;381;48.770;9.188;2023-04-25T03:16:22;11.30;99.90
796;DHT22;381;48.770;9.188;2023-04-25T03:21:24;11.30;99.90
796;DHT22;381;48.770;9.188;2023-04-25T03:26:28;11.40;99.90
796;DHT22;381;48.770;9.188;2023-04-25T03:31:30;11.40;98.50
796;DHT22;381;48.770;9.188;2023-04-25T03:36:34;11.40;98.60
796;DHT22;381;48.770;9.188;2023-04-25T03:41:38;11.20;99.30
796;DHT22;381;48.770;9.188;2023-04-25T03:46:46;11.00;99.30
796;DHT22;381;48.770;9.188;2023-04-25T03:51:49;10.90;99.40
796;DHT22;381;48.770;9.188;2023-04-25T03:56:52;10.90;99.70
796;DHT22;381;48.770;9.188;2023-04-25T04:01:57;10.90;99.50
796;DHT22;381;48.770;9.188;2023-04-25T04:07:00;10.80;99.60
796;DHT22;381;48.770;9.188;2023-04-25T04:12:07;10.80;99.90
796;DHT22;381;48.770;9.188;2023-04-25T04:17:11;10.80;99.90
796;DHT22;381;48.770;9.188;2023-04-25T04:22:14;10.70;99.50
796;DHT22;381;48.770;9.188;2023-04-25T04:27:19;10.70;99.90
796;DHT22;381;48.770;9.188;2023-04-25T04:32:42;10.80;99.90
796;DHT22;381;48.770;9.188;2023-04-25T04:37:44;10.90;99.90
796;DHT22;381;48.770;9.188;2023-04-25T04:42:50;10.90;99.90
796;DHT22;381;48.770;9.188;2023-04-25T04:48:09;10.90;99.90
796;DHT22;381;48.770;9.188;2023-04-25T04:53:31;11.00;99.80
796;DHT22;381;48.770;9.188;2023-04-25T04:58:53;11.10;99.90
796;DHT22;381;48.770;9.188;2023-04-25T05:04:26;11.20;99.10
796;DHT22;381;48.770;9.188;2023-04-25T05:09:47;11.20;99.70
796;DHT22;381;48.770;9.188;2023-04-25T05:15:10;11.30;99.80
796;DHT22;381;48.770;9.188;2023-04-25T05:20:31;11.30;99.60
796;DHT22;381;48.770;9.188;2023-04-25T05:25:52;11.40;98.90
796;DHT22;381;48.770;9.188;2023-04-25T05:31:15;11.50;99.10
796;DHT22;381;48.770;9.188;2023-04-25T05:36:29;11.60;99.80
796;DHT22;381;48.770;9.188;2023-04-25T05:41:31;11.70;99.80
796;DHT22;381;48.770;9.188;2023-04-25T05:46:58;11.70;99.10
796;DHT22;381;48.770;9.188;2023-04-25T05:52:18;11.90;98.70
796;DHT22;381;48.770;9.188;2023-04-25T05:57:42;12.00;97.90
796;DHT22;381;48.770;9.188;2023-04-25T06:02:48;12.00;98.20
796;DHT22;381;48.770;9.188;2023-04-25T06:07:51;12.00;96.50
796;DHT22;381;48.770;9.188;2023-04-25T06:12:55;11.90;97.10
796;DHT22;381;48.770;9.188;2023-04-25T06:18:00;11.90;96.70
796;DHT22;381;48.770;9.188;2023-04-25T06:23:02;11.90;97.80
796;DHT22;381;48.770;9.188;2023-04-25T06:28:19;11.90;97.30
796;DHT22;381;48.770;9.188;2023-04-25T06:33:24;12.00;95.40
796;DHT22;381;48.770;9.188;2023-04-25T06:38:28;11.90;97.40
796;DHT22;381;48.770;9.188;2023-04-25T06:43:32;12.00;98.00
796;DHT22;381;48.770;9.188;2023-04-25T06:48:45;11.80;98.90
796;DHT22;381;48.770;9.188;2023-04-25T06:53:47;11.60;99.90
796;DHT22;381;48.770;9.188;2023-04-25T06:58:59;11.60;99.90
796;DHT22;381;48.770;9.188;2023-04-25T07:04:12;11.60;99.90
796;DHT22;381;48.770;9.188;2023-04-25T07:09:20;11.60;99.90
796;DHT22;381;48.770;9.188;2023-04-25T07:14:26;11.70;99.90
796;DHT22;381;48.770;9.188;2023-04-25T07:19:30;11.70;99.90
796;DHT22;381;48.770;9.188;2023-04-25T07:24:35;11.70;99.90
796;DHT22;381;48.770;9.188;2023-04-25T07:29:39;11.60;99.90
796;DHT22;381;48.770;9.188;2023-04-25T07:34:43;11.50;99.90
796;DHT22;381;48.770;9.188;2023-04-25T07:39:45;11.40;99.90
796;DHT22;381;48.770;9.188;2023-04-25T07:44:47;11.30;99.90
796;DHT22;381;48.770;9.188;2023-04-25T07:49:51;11.40;99.90
796;DHT22;381;48.770;9.188;2023-04-25T07:54:53;11.40;99.90
796;DHT22;381;48.770;9.188;2023-04-25T08:00:04;11.30;99.90
796;DHT22;381;48.770;9.188;2023-04-25T08:05:16;11.20;99.90
796;DHT22;381;48.770;9.188;2023-04-25T08:10:22;11.10;99.90
796;DHT22;381;48.770;9.188;2023-04-25T08:15:25;11.00;99.90
796;DHT22;381;48.770;9.188;2023-04-25T08:20:29;10.90;99.90
796;DHT22;381;48.770;9.188;2023-04-25T08:25:34;10.90;99.90
796;DHT22;381;48.770;9.188;2023-04-25T08:30:37;10.80;99.90
796;DHT22;381;48.770;9.188;2023-04-25T08:35:43;10.80;99.90
796;DHT22;381;48.770;9.188;2023-04-25T08:40:49;10.80;99.90
796;DHT22;381;48.770;9.188;2023-04-25T08:45:53;10.80;99.90
796;DHT22;381;48.770;9.188;2023-04-25T08:51:07;10.80;99.90
796;DHT22;381;48.770;9.188;2023-04-25T08:56:11;10.70;99.90
796;DHT22;381;48.770;9.188;2023-04-25T09:01:15;10.70;99.90
796;DHT22;381;48.770;9.188;2023-04-25T09:06:25;10.70;99.90
796;DHT22;381;48.770;9.188;2023-04-25T09:11:27;10.70;99.90
796;DHT22;381;48.770;9.188;2023-04-25T09:16:30;10.60;99.90
796;DHT22;381;48.770;9.188;2023-04-25T09:21:56;10.60;99.90
796;DHT22;381;48.770;9.188;2023-04-25T09:26:58;10.60;99.90
796;DHT22;381;48.770;9.188;2023-04-25T09:32:14;10.50;99.90
796;DHT22;381;48.770;9.188;2023-04-25T09:37:19;10.50;99.90
796;DHT22;381;48.770;9.188;2023-04-25T09:42:42;10.50;99.90
796;DHT22;381;48.770;9.188;2023-04-25T09:47:44;10.40;99.90
796;DHT22;381;48.770;9.188;2023-04-25T09:53:03;10.40;99.90
796;DHT22;381;48.770;9.188;2023-04-25T09:58:18;10.40;99.90
796;DHT22;381;48.770;9.188;2023-04-25T10:03:23;10.40;99.90
796;DHT22;381;48.770;9.188;2023-04-25T10:08:52;10.30;99.90
796;DHT22;381;48.770;9.188;2023-04-25T10:13:56;10.20;99.90
796;DHT22;381;48.770;9.188;2023-04-25T10:18:58;10.20;99.90
796;DHT22;381;48.770;9.188;2023-04-25T10:24:03;10.20;99.90
796;DHT22;381;48.770;9.188;2023-04-25T10:29:05;10.20;99.90
796;DHT22;381;48.770;9.188;2023-04-25T10:34:07;10.10;99.90
796;DHT22;381;48.770;9.188;2023-04-25T10:39:11;10.00;99.90
796;DHT22;381;48.770;9.188;2023-04-25T10:44:13;10.00;99.90
796;DHT22;381;48.770;9.188;2023-04-25T10:49:30;10.00;99.90
796;DHT22;381;48.770;9.188;2023-04-25T10:54:34;10.10;99.90
796;DHT22;381;48.770;9.188;2023-04-25T10:59:36;10.10;99.90
796;DHT22;381;48.770;9.188;2023-04-25T11:04:38;10.10;99.90
796;DHT22;381;48.770;9.188;2023-04-25T11:09:45;10.10;99.90
796;DHT22;381;48.770;9.188;2023-04-25T11:14:47;10.00;99.90
796;DHT22;381;48.770;9.188;2023-04-25T11:19:49;10.00;99.90
796;DHT22;381;48.770;9.188;2023-04-25T11:24:53;10.00;99.90
796;DHT22;381;48.770;9.188;2023-04-25T11:29:55;10.00;99.90
796;DHT22;381;48.770;9.188;2023-04-25T11:34:57;10.10;99.90
796;DHT22;381;48.770;9.188;2023-04-25T11:40:02;10.20;99.90
796;DHT22;381;48.770;9.188;2023-04-25T11:45:05;10.20;99.90
796;DHT22;381;48.770;9.188;2023-04-25T11:50:09;10.30;99.90
796;DHT22;381;48.770;9.188;2023-04-25T11:55:15;10.40;99.90
796;DHT22;381;48.770;9.188;2023-04-25T12:00:19;10.50;99.90
796;DHT22;381;48.770;9.188;2023-04-25T12:05:25;10.50;99.90
796;DHT22;381;48.770;9.188;2023-04-25T12:10:29;10.50;99.90
796;DHT22;381;48.770;9.188;2023-04-25T12:15:33;10.60;99.90
796;DHT22;381;48.770;9.188;2023-04-25T12:20:36;10.70;99.90
796;DHT22;381;48.770;9.188;2023-04-25T12:25:40;10.90;99.90
796;DHT22;381;48.770;9.188;2023-04-25T12:30:56;10.90;99.90
796;DHT22;381;48.770;9.188;2023-04-25T12:35:58;10.90;99.90
796;DHT22;381;48.770;9.188;2023-04-25T12:41:02;10.80;99.90
796;DHT22;381;48.770;9.188;2023-04-25T12:46:05;10.90;99.90
796;DHT22;381;48.770;9.188;2023-04-25T12:51:07;10.90;99.90
796;DHT22;381;48.770;9.188;2023-04-25T12:56:10;10.90;99.90
796;DHT22;381;48.770;9.188;2023-04-25T13:01:13;11.00;99.90
796;DHT22;381;48.770;9.188;2023-04-25T13:06:15;11.10;99.90
796;DHT22;381;48.770;9.188;2023-04-25T13:11:19;11.30;99.90
796;DHT22;381;48.770;9.188;2023-04-25T13:16:21;11.40;99.90
796;DHT22;381;48.770;9.188;2023-04-25T13:21:23;11.50;99.90
796;DHT22;381;48.770;9.188;2023-04-25T13:26:27;11.60;99.90
796;DHT22;381;48.770;9.188;2023-04-25T13:31:30;11.60;99.90
796;DHT22;381;48.770;9.188;2023-04-25T13:36:32;11.70;99.90
796;DHT22;381;48.770;9.188;2023-04-25T13:41:36;11.80;99.90
796;DHT22;381;48.770;9.188;2023-04-25T13:46:38;12.00;99.90
796;DHT22;381;48.770;9.188;2023-04-25T13:51:40;12.20;99.90
796;DHT22;381;48.770;9.188;2023-04-25T13:56:44;12.20;99.90
796;DHT22;381;48.770;9.188;2023-04-25T14:01:46;12.20;99.90
796;DHT22;381;48.770;9.188;2023-04-25T14:06:48;12.30;99.90
796;DHT22;381;48.770;9.188;2023-04-25T14:11:52;12.50;99.90
796;DHT22;381;48.770;9.188;2023-04-25T14:16:54;12.50;99.90
796;DHT22;381;48.770;9.188;2023-04-25T14:21:57;12.60;99.90
796;DHT22;381;48.770;9.188;2023-04-25T14:27:01;12.70;99.90
796;DHT22;381;48.770;9.188;2023-04-25T14:32:03;12.60;99.90
796;DHT22;381;48.770;9.188;2023-04-25T14:37:06;12.70;99.90
796;DHT22;381;48.770;9.188;2023-04-25T14:42:09;12.70;99.90
796;DHT22;381;48.770;9.188;2023-04-25T14:47:11;12.80;99.90
796;DHT22;381;48.770;9.188;2023-04-25T14:52:13;12.80;99.90
796;DHT22;381;48.770;9.188;2023-04-25T14:57:17;12.80;99.90
796;DHT22;381;48.770;9.188;2023-04-25T15:02:19;12.80;99.90
796;DHT22;381;48.770;9.188;2023-04-25T15:07:22;12.90;99.90
796;DHT22;381;48.770;9.188;2023-04-25T15:12:25;12.90;99.90
796;DHT22;381;48.770;9.188;2023-04-25T15:17:28;13.00;99.90
796;DHT22;381;48.770;9.188;2023-04-25T15:22:31;13.00;99.90
796;DHT22;381;48.770;9.188;2023-04-25T15:27:35;12.90;99.90
796;DHT22;381;48.770;9.188;2023-04-25T15:32:41;12.80;99.90
796;DHT22;381;48.770;9.188;2023-04-25T15:37:43;12.70;99.90
796;DHT22;381;48.770;9.188;2023-04-25T15:42:48;12.50;99.90
796;DHT22;381;48.770;9.188;2023-04-25T15:47:51;12.40;99.90
796;DHT22;381;48.770;9.188;2023-04-25T15:52:54;12.40;99.90
796;DHT22;381;48.770;9.188;2023-04-25T15:57:59;12.40;99.90
796;DHT22;381;48.770;9.188;2023-04-25T16:03:01;12.50;99.90
796;DHT22;381;48.770;9.188;2023-04-25T16:08:04;12.60;99.90
796;DHT22;381;48.770;9.188;2023-04-25T16:13:07;12.60;99.90
796;DHT22;381;48.770;9.188;2023-04-25T16:18:09;12.60;99.90
796;DHT22;381;48.770;9.188;2023-04-25T16:23:11;12.60;99.90
796;DHT22;381;48.770;9.188;2023-04-25T16:28:16;12.60;99.90
796;DHT22;381;48.770;9.188;2023-04-25T16:33:18;12.60;99.90
796;DHT22;381;48.770;9.188;2023-04-25T16:38:20;12.70;99.90
796;DHT22;381;48.770;9.188;2023-04-25T16:43:23;12.70;99.90
796;DHT22;381;48.770;9.188;2023-04-25T16:48:25;12.70;99.90
796;DHT22;381;48.770;9.188;2023-04-25T16:53:28;12.80;99.90
796;DHT22;381;48.770;9.188;2023-04-25T16:58:31;12.70;99.90
796;DHT22;381;48.770;9.188;2023-04-25T17:03:33;12.70;99.90
796;DHT22;381;48.770;9.188;2023-04-25T17:08:35;12.60;99.90
796;DHT22;381;48.770;9.188;2023-04-25T17:13:39;12.60;99.90
796;DHT22;381;48.770;9.188;2023-04-25T17:18:43;12.60;99.90
796;DHT22;381;48.770;9.188;2023-04-25T17:23:45;12.60;99.90
796;DHT22;381;48.770;9.188;2023-04-25T17:28:49;12.50;99.90
796;DHT22;381;48.770;9.188;2023-04-25T17:33:52;12.40;99.90
796;DHT22;381;48.770;9.188;2023-04-25T17:38:54;12.40;99.90
796;DHT22;381;48.770;9.188;2023-04-25T17:43:57;12.30;99.90
796;DHT22;381;48.770;9.188;2023-04-25T17:48:59;12.20;99.90
796;DHT22;381;48.770;9.188;2023-04-25T17:54:01;12.10;99.90
796;DHT22;381;48.770;9.188;2023-04-25T17:59:05;12.10;99.90
796;DHT22;381;48.770;9.188;2023-04-25T18:04:07;11.90;99.90
796;DHT22;381;48.770;9.188;2023-04-25T18:09:09;11.80;99.90
796;DHT22;381;48.770;9.188;2023-04-25T18:14:19;11.50;99.90
796;DHT22;381;48.770;9.188;2023-04-25T18:19:21;11.20;99.90
796;DHT22;381;48.770;9.188;2023-04-25T18:24:24;11.00;99.90
796;DHT22;381;48.770;9.188;2023-04-25T18:29:28;10.90;99.90
796;DHT22;381;48.770;9.188;2023-04-25T18:34:31;10.80;99.90
796;DHT22;381;48.770;9.188;2023-04-25T18:39:33;10.70;99.90
796;DHT22;381;48.770;9.188;2023-04-25T18:44:37;10.70;99.90
796;DHT22;381;48.770;9.188;2023-04-25T18:49:40;10.70;99.90
796;DHT22;381;48.770;9.188;2023-04-25T18:54:43;10.60;99.90
796;DHT22;381;48.770;9.188;2023-04-25T18:59:47;10.50;99.90
796;DHT22;381;48.770;9.188;2023-04-25T19:04:49;10.50;99.90
796;DHT22;381;48.770;9.188;2023-04-25T19:09:52;10.50;99.90
796;DHT22;381;48.770;9.188;2023-04-25T19:14:55;10.50;99.90
796;DHT22;381;48.770;9.188;2023-04-25T19:20:01;10.60;99.90
796;DHT22;381;48.770;9.188;2023-04-25T19:25:04;10.60;99.90
796;DHT22;381;48.770;9.188;2023-04-25T19:30:09;10.70;99.90
796;DHT22;381;48.770;9.188;2023-04-25T19:35:15;10.80;99.90
796;DHT22;381;48.770;9.188;2023-04-25T19:40:21;10.80;99.90
796;DHT22;381;48.770;9.188;2023-04-25T19:45:24;10.70;99.90
796;DHT22;381;48.770;9.188;2023-04-25T19:50:27;10.60;99.90
796;DHT22;381;48.770;9.188;2023-04-25T19:55:30;10.50;99.90
796;DHT22;381;48.770;9.188;2023-04-25T20:00:34;10.50;99.90
796;DHT22;381;48.770;9.188;2023-04-25T20:05:36;10.50;99.90
796;DHT22;381;48.770;9.188;2023-04-25T20:10:38;10.50;99.90
796;DHT22;381;48.770;9.188;2023-04-25T20:15:45;10.50;99.90
796;DHT22;381;48.770;9.188;2023-04-25T20:20:47;10.40;99.90
796;DHT22;381;48.770;9.188;2023-04-25T20:25:49;10.30;99.90
796;DHT22;381;48.770;9.188;2023-04-25T20:30:53;10.30;99.90
796;DHT22;381;48.770;9.188;2023-04-25T20:35:55;10.30;99.90
796;DHT22;381;48.770;9.188;2023-04-25T20:41:00;10.40;99.90
796;DHT22;381;48.770;9.188;2023-04-25T20:46:04;10.40;99.90
796;DHT22;381;48.770;9.188;2023-04-25T20:51:07;10.50;99.90
796;DHT22;381;48.770;9.188;2023-04-25T20:56:09;10.40;99.90
796;DHT22;381;48.770;9.188;2023-04-25T21:01:13;10.40;99.90
796;DHT22;381;48.770;9.188;2023-04-25T21:06:17;10.40;99.90
796;DHT22;381;48.770;9.188;2023-04-25T21:11:19;10.30;99.90
796;DHT22;381;48.770;9.188;2023-04-25T21:16:24;10.30;99.90
796;DHT22;381;48.770;9.188;2023-04-25T21:21:26;10.20;99.90
796;DHT22;381;48.770;9.188;2023-04-25T21:26:28;10.20;99.90
796;DHT22;381;48.770;9.188;2023-04-25T21:31:32;10.10;99.90
796;DHT22;381;48.770;9.188;2023-04-25T21:36:34;10.10;99.90
796;DHT22;381;48.770;9.188;2023-04-25T21:41:36;10.10;99.90
796;DHT22;381;48.770;9.188;2023-04-25T21:46:40;10.00;99.90
796;DHT22;381;48.770;9.188;2023-04-25T21:51:42;10.00;99.90
796;DHT22;381;48.770;9.188;2023-04-25T21:56:44;10.00;99.90
796;DHT22;381;48.770;9.188;2023-04-25T22:01:48;10.00;99.90
796;DHT22;381;48.770;9.188;2023-04-25T22:06:50;10.10;99.90
796;DHT22;381;48.770;9.188;2023-04-25T22:11:52;10.10;99.90
796;DHT22;381;48.770;9.188;2023-04-25T22:16:56;10.00;99.90
796;DHT22;381;48.770;9.188;2023-04-25T22:21:58;9.90;99.90
796;DHT22;381;48.770;9.188;2023-04-25T22:27:00;9.90;99.90
796;DHT22;381;48.770;9.188;2023-04-25T22:32:04;9.90;99.90
796;DHT22;381;48.770;9.188;2023-04-25T22:37:06;10.00;99.90
796;DHT22;381;48.770;9.188;2023-04-25T22:42:08;10.00;99.90
796;DHT22;381;48.770;9.188;2023-04-25T22:47:12;10.00;99.90
796;DHT22;381;48.770;9.188;2023-04-25T22:52:16;10.10;99.90
796;DHT22;381;48.770;9.188;2023-04-25T22:57:21;10.00;99.90
796;DHT22;381;48.770;9.188;2023-04-25T23:02:24;10.00;99.90
796;DHT22;381;48.770;9.188;2023-04-25T23:07:27;9.90;99.90
796;DHT22;381;48.770;9.188;2023-04-25T23:12:31;10.00;99.90
796;DHT22;381;48.770;9.188;2023-04-25T23:17:37;10.00;99.90
796;DHT22;381;48.770;9.188;2023-04-25T23:22:39;10.00;99.90
796;DHT22;381;48.770;9.188;2023-04-25T23:27:42;10.10;99.90
796;DHT22;381;48.770;9.188;2023-04-25T23:32:46;10.10;99.90
796;DHT22;381;48.770;9.188;2023-04-25T23:37:48;10.20;99.90
796;DHT22;381;48.770;9.188;2023-04-25T23:42:50;10.20;99.90
796;DHT22;381;48.770;9.188;2023-04-25T23:47:53;10.20;99.90
796;DHT22;381;48.770;9.188;2023-04-25T23:52:55;10.20;99.90
796;DHT22;381;48.770;9.188;2023-04-25T23:57:57;10.30;99.90
